createdAt,value
2022-10-11T00:00:22.616Z,17.33
2022-10-11T00:05:39.518Z,17.23
2022-10-11T00:11:02.218Z,17.23
2022-10-11T00:16:17.200Z,17.01
2022-10-11T00:21:34.099Z,17.06
2022-10-11T00:26:50.739Z,17.04
2022-10-11T00:32:08.943Z,17.00
2022-10-11T00:37:27.143Z,16.86
2022-10-11T00:42:45.402Z,16.81
2022-10-11T00:48:05.138Z,16.71
2022-10-11T00:53:23.756Z,16.64
2022-10-11T00:58:42.371Z,16.51
2022-10-11T01:03:59.874Z,16.56
2022-10-11T01:09:19.091Z,16.50
2022-10-11T01:14:48.025Z,16.40
2022-10-11T01:20:32.597Z,16.36
2022-10-11T01:26:03.593Z,16.31
2022-10-11T01:31:26.882Z,16.29
2022-10-11T01:36:49.766Z,16.16
2022-10-11T01:42:10.763Z,16.13
2022-10-11T01:47:28.322Z,16.05
2022-10-11T01:52:46.489Z,16.01
2022-10-11T01:58:18.850Z,15.99
2022-10-11T02:03:41.732Z,16.08
2022-10-11T02:09:08.046Z,16.07
2022-10-11T02:14:27.887Z,16.03
2022-10-11T02:19:47.103Z,16.01
2022-10-11T02:25:07.616Z,15.87
2022-10-11T02:30:25.544Z,15.52
2022-10-11T02:35:47.017Z,15.46
2022-10-11T02:41:12.871Z,15.11
2022-10-11T02:46:31.170Z,15.03
2022-10-11T02:51:47.935Z,14.83
2022-10-11T02:57:06.192Z,14.74
2022-10-11T03:02:24.766Z,14.70
2022-10-11T03:07:42.554Z,14.52
2022-10-11T03:13:00.706Z,14.57
2022-10-11T03:18:18.971Z,14.25
2022-10-11T03:23:37.171Z,14.31
2022-10-11T03:28:55.447Z,14.39
2022-10-11T03:34:13.545Z,14.37
2022-10-11T03:39:32.011Z,14.35
2022-10-11T03:44:51.843Z,14.31
2022-10-11T03:50:10.801Z,14.36
2022-10-11T03:55:26.022Z,14.31
2022-10-11T04:00:41.030Z,14.24
2022-10-11T04:05:57.986Z,14.11
2022-10-11T04:11:21.094Z,14.01
2022-10-11T04:16:40.077Z,13.96
2022-10-11T04:21:57.449Z,13.97
2022-10-11T04:27:15.618Z,14.02
2022-10-11T04:32:33.865Z,14.04
2022-10-11T04:37:52.115Z,14.07
2022-10-11T04:43:10.366Z,14.00
2022-10-11T04:48:28.510Z,13.94
2022-10-11T04:53:46.718Z,13.97
2022-10-11T04:59:05.248Z,13.91
2022-10-11T05:04:21.095Z,14.01
2022-10-11T05:11:29.917Z,14.09
2022-10-11T05:16:44.272Z,14.07
2022-10-11T05:21:59.935Z,14.02
2022-10-11T05:27:16.945Z,13.98
2022-10-11T05:32:36.245Z,13.98
2022-10-11T05:37:53.314Z,13.99
2022-10-11T05:43:09.815Z,13.97
2022-10-11T05:48:26.849Z,14.02
2022-10-11T05:53:44.819Z,14.06
2022-10-11T05:59:03.006Z,14.13
2022-10-11T06:04:21.190Z,14.15
2022-10-11T06:09:39.747Z,14.25
2022-10-11T06:14:57.557Z,14.31
2022-10-11T06:20:29.624Z,14.44
2022-10-11T06:26:07.250Z,14.63
2022-10-11T06:31:43.303Z,14.88
2022-10-11T06:37:13.826Z,14.90
2022-10-11T06:42:48.858Z,15.17
2022-10-11T06:48:18.543Z,15.23
2022-10-11T06:54:01.775Z,15.19
2022-10-11T06:59:41.045Z,15.40
2022-10-11T07:05:29.280Z,15.58
2022-10-11T07:11:04.482Z,15.90
2022-10-11T07:16:53.676Z,16.10
2022-10-11T07:22:27.339Z,16.06
2022-10-11T07:28:00.031Z,16.21
2022-10-11T07:33:30.993Z,16.29
2022-10-11T07:39:17.059Z,16.77
2022-10-11T07:44:58.015Z,16.80
2022-10-11T07:50:33.995Z,17.25
2022-10-11T07:56:16.310Z,17.54
2022-10-11T08:01:47.740Z,17.56
2022-10-11T08:07:18.665Z,18.23
2022-10-11T08:13:04.433Z,18.39
2022-10-11T08:18:44.029Z,18.17
2022-10-11T08:24:20.836Z,18.42
2022-10-11T08:29:51.764Z,18.98
2022-10-11T08:35:23.247Z,19.58
2022-10-11T08:40:57.226Z,18.91
2022-10-11T08:46:30.747Z,20.03
2022-10-11T08:52:04.521Z,19.32
2022-10-11T08:57:36.433Z,20.20
2022-10-11T09:03:16.971Z,20.40
2022-10-11T09:08:40.897Z,19.62
2022-10-11T09:13:59.696Z,20.47
2022-10-11T09:19:27.649Z,20.64
2022-10-11T09:24:41.289Z,21.02
2022-10-11T09:29:52.692Z,21.08
2022-10-11T09:35:00.598Z,21.26
2022-10-11T09:40:19.219Z,21.30
2022-10-11T09:45:23.284Z,21.56
2022-10-11T09:50:30.517Z,21.58
2022-10-11T09:55:37.177Z,21.74
2022-10-11T10:00:40.567Z,21.99
2022-10-11T10:05:43.942Z,21.93
2022-10-11T10:10:54.693Z,21.87
2022-10-11T10:16:04.136Z,22.15
2022-10-11T10:21:11.653Z,22.33
2022-10-11T10:26:19.814Z,22.16
2022-10-11T10:31:24.916Z,21.73
2022-10-11T10:36:30.565Z,20.92
2022-10-11T10:41:35.930Z,22.18
2022-10-11T10:46:51.545Z,22.17
2022-10-11T10:52:05.809Z,21.46
2022-10-11T10:57:17.423Z,21.89
2022-10-11T11:07:48.789Z,22.22
2022-10-11T11:12:59.051Z,22.41
2022-10-11T11:18:14.756Z,21.71
2022-10-11T11:23:23.599Z,21.88
2022-10-11T11:28:51.047Z,22.49
2022-10-11T11:34:02.879Z,21.38
2022-10-11T11:39:13.513Z,22.85
2022-10-11T11:44:27.087Z,23.14
2022-10-11T11:49:34.109Z,22.34
2022-10-11T11:54:45.793Z,21.61
2022-10-11T11:59:53.642Z,22.29
2022-10-11T12:04:58.136Z,21.29
2022-10-11T12:10:27.222Z,22.58
2022-10-11T12:15:33.274Z,22.19
2022-10-11T12:20:40.615Z,21.86
2022-10-11T12:25:45.015Z,22.71
2022-10-11T12:30:53.701Z,22.18
2022-10-11T12:36:04.067Z,23.55
2022-10-11T12:41:38.854Z,23.18
2022-10-11T12:47:21.439Z,23.86
2022-10-11T12:52:30.967Z,23.54
2022-10-11T12:58:09.941Z,23.85
2022-10-11T13:03:32.466Z,22.85
2022-10-11T13:08:38.215Z,22.96
2022-10-11T13:13:43.987Z,23.76
2022-10-11T13:18:50.411Z,23.54
2022-10-11T13:23:57.662Z,22.97
2022-10-11T13:29:01.347Z,23.82
2022-10-11T13:34:06.181Z,23.97
2022-10-11T13:39:30.898Z,23.53
2022-10-11T13:44:36.262Z,22.78
2022-10-11T13:49:41.307Z,24.47
2022-10-11T13:55:14.619Z,23.69
2022-10-11T14:00:30.566Z,25.29
2022-10-11T14:05:38.263Z,24.36
2022-10-11T14:10:46.711Z,25.32
2022-10-11T14:16:00.607Z,24.88
2022-10-11T14:21:31.275Z,24.18
2022-10-11T14:26:37.378Z,22.85
2022-10-11T14:31:42.286Z,22.39
2022-10-11T14:36:47.680Z,22.88
2022-10-11T14:41:52.461Z,23.05
2022-10-11T14:46:56.142Z,22.75
2022-10-11T14:52:01.591Z,23.42
2022-10-11T14:57:05.326Z,22.51
2022-10-11T15:02:11.672Z,22.82
2022-10-11T15:07:16.530Z,23.17
2022-10-11T15:12:20.945Z,23.03
2022-10-11T15:17:24.593Z,22.91
2022-10-11T15:22:29.871Z,22.80
2022-10-11T15:27:33.437Z,23.04
2022-10-11T15:32:36.939Z,22.99
2022-10-11T15:37:41.862Z,22.84
2022-10-11T15:42:45.543Z,22.67
2022-10-11T15:47:49.869Z,22.62
2022-10-11T15:52:54.585Z,22.34
2022-10-11T15:57:58.410Z,22.16
2022-10-11T16:03:02.278Z,22.09
2022-10-11T16:08:07.256Z,22.05
2022-10-11T16:13:11.719Z,21.89
2022-10-11T16:18:16.868Z,21.81
2022-10-11T16:23:22.379Z,21.46
2022-10-11T16:28:26.599Z,21.14
2022-10-11T16:33:31.755Z,20.82
2022-10-11T16:38:36.713Z,20.39
2022-10-11T16:43:40.729Z,20.13
2022-10-11T16:48:44.374Z,19.84
2022-10-11T16:53:49.235Z,19.61
2022-10-11T16:58:53.385Z,19.24
2022-10-11T17:03:58.134Z,18.98
2022-10-11T17:09:03.710Z,18.68
2022-10-11T17:14:08.135Z,18.64
2022-10-11T17:19:12.897Z,18.42
2022-10-11T17:24:17.761Z,18.34
2022-10-11T17:29:22.152Z,18.27
2022-10-11T17:34:25.884Z,18.05
2022-10-11T17:39:30.910Z,17.95
2022-10-11T17:44:35.982Z,17.77
2022-10-11T17:49:39.854Z,17.52
2022-10-11T17:54:44.639Z,17.45
2022-10-11T17:59:48.190Z,17.39
2022-10-11T18:04:51.618Z,17.27
2022-10-11T18:09:57.041Z,17.13
2022-10-11T18:15:01.451Z,17.13
2022-10-11T18:20:05.975Z,16.94
2022-10-11T18:25:11.162Z,16.81
2022-10-11T18:30:14.725Z,16.75
2022-10-11T18:35:18.343Z,16.47
2022-10-11T18:40:23.647Z,16.55
2022-10-11T18:45:27.564Z,16.51
2022-10-11T18:50:34.890Z,16.29
2022-10-11T18:55:39.746Z,16.31
2022-10-11T19:00:43.159Z,16.25
2022-10-11T19:05:46.578Z,16.17
2022-10-11T19:10:51.455Z,16.00
2022-10-11T19:15:55.383Z,15.70
2022-10-11T19:21:02.071Z,15.65
2022-10-11T19:26:07.624Z,15.57
2022-10-11T19:31:16.223Z,15.38
2022-10-11T19:36:19.736Z,15.26
2022-10-11T19:41:25.796Z,15.32
2022-10-11T19:46:50.452Z,15.32
2022-10-11T19:51:53.726Z,15.19
2022-10-11T19:56:58.637Z,15.16
2022-10-11T20:02:02.198Z,15.07
2022-10-11T20:07:05.697Z,15.09
2022-10-11T20:12:10.774Z,15.00
2022-10-11T20:17:17.758Z,14.92
2022-10-11T20:22:21.098Z,14.86
2022-10-11T20:27:25.910Z,14.82
2022-10-11T20:32:29.388Z,14.79
2022-10-11T20:37:33.172Z,14.68
2022-10-11T20:42:38.567Z,14.71
2022-10-11T20:47:42.190Z,14.59
2022-10-11T20:52:45.568Z,14.47
2022-10-11T20:57:50.576Z,14.42
2022-10-11T21:02:54.138Z,14.36
2022-10-11T21:07:57.567Z,14.34
2022-10-11T21:13:03.042Z,14.22
2022-10-11T21:18:07.046Z,14.24
2022-10-11T21:23:10.794Z,14.23
2022-10-11T21:28:15.709Z,14.22
2022-10-11T21:33:19.156Z,14.16
2022-10-11T21:38:22.611Z,14.09
2022-10-11T21:43:27.560Z,14.08
2022-10-11T21:48:31.127Z,13.95
2022-10-11T21:53:34.683Z,13.93
2022-10-11T21:58:39.505Z,13.92
2022-10-11T22:03:43.072Z,13.81
2022-10-11T22:08:46.502Z,13.83
2022-10-11T22:13:51.458Z,13.74
2022-10-11T22:18:55.318Z,13.70
2022-10-11T22:23:58.747Z,13.63
2022-10-11T22:29:03.547Z,13.59
2022-10-11T22:34:06.943Z,13.52
2022-10-11T22:39:11.311Z,13.56
2022-10-11T22:44:16.386Z,13.52
2022-10-11T22:49:19.980Z,13.45
2022-10-11T22:54:23.415Z,13.39
2022-10-11T22:59:28.234Z,13.40
2022-10-11T23:04:31.733Z,13.35
2022-10-11T23:09:35.148Z,13.26
2022-10-11T23:14:40.479Z,13.16
2022-10-11T23:19:44.469Z,13.06
2022-10-11T23:24:47.964Z,13.04
2022-10-11T23:29:52.726Z,13.09
2022-10-11T23:34:56.250Z,12.97
2022-10-11T23:39:59.751Z,12.99
2022-10-11T23:45:05.804Z,13.01
2022-10-11T23:50:09.937Z,13.02
2022-10-11T23:55:13.423Z,13.04
